Time;durP1;ratioP1;P1;durP2;ratioP2;P2;SDS_P1;SDS_P2;PMS_P1;PMS_P2;Temp;Humidity;BMP_temperature;BMP_pressure;BME280_temperature;BME280_humidity;BME280_pressure;Samples;Min_cycle;Max_cycle;Signal;HPM_P1;HPM_P2
2020/12/23 00:00:48;;;;;;;3.00;0.70;;;11.30;99.90;;;;;;4995700;28;20345;-77
2020/12/23 00:03:14;;;;;;;1.07;1.00;;;11.30;99.90;;;;;;4995831;28;20240;-74
2020/12/23 00:05:40;;;;;;;0.87;0.80;;;11.40;99.90;;;;;;4995606;28;20211;-77
2020/12/23 00:08:08;;;;;;;1.10;1.00;;;11.40;99.90;;;;;;4995498;28;20207;-77
2020/12/23 00:10:34;;;;;;;1.30;1.20;;;11.30;99.90;;;;;;4995751;28;20205;-74
2020/12/23 00:13:01;;;;;;;0.70;0.70;;;11.20;99.90;;;;;;4995772;28;20216;-77
2020/12/23 00:15:28;;;;;;;1.73;1.00;;;11.00;99.90;;;;;;4995875;28;20208;-77
2020/12/23 00:17:54;;;;;;;2.10;1.70;;;11.00;99.90;;;;;;4995312;28;20209;-75
2020/12/23 00:20:21;;;;;;;0.97;0.70;;;10.90;99.90;;;;;;4995192;28;20283;-74
2020/12/23 00:22:47;;;;;;;0.90;0.90;;;10.80;99.90;;;;;;4995213;28;20216;-76
2020/12/23 00:25:14;;;;;;;0.77;0.57;;;11.00;99.90;;;;;;4995153;28;20754;-74
2020/12/23 00:27:41;;;;;;;0.77;0.63;;;11.00;99.90;;;;;;4995411;28;20259;-77
2020/12/23 00:30:08;;;;;;;1.53;0.90;;;11.20;99.90;;;;;;4995249;28;20211;-76
2020/12/23 00:32:34;;;;;;;0.70;0.70;;;11.20;99.90;;;;;;4995149;28;20204;-74
2020/12/23 00:35:01;;;;;;;1.20;1.10;;;11.00;99.90;;;;;;4995398;28;20205;-75
2020/12/23 00:37:27;;;;;;;0.90;0.80;;;10.90;99.90;;;;;;4995469;28;20200;-77
2020/12/23 00:39:53;;;;;;;1.17;1.00;;;10.80;99.90;;;;;;4994913;28;20724;-79
2020/12/23 00:42:24;;;;;;;1.60;1.50;;;10.70;99.90;;;;;;4994860;28;20205;-77
2020/12/23 00:44:50;;;;;;;1.70;1.47;;;10.60;99.90;;;;;;4994888;28;20259;-77
2020/12/23 00:47:16;;;;;;;2.30;1.60;;;10.60;99.90;;;;;;4994917;28;20205;-74
2020/12/23 00:49:43;;;;;;;2.17;1.60;;;10.50;99.90;;;;;;4994714;28;20208;-77
2020/12/23 00:52:09;;;;;;;2.70;2.47;;;10.40;99.90;;;;;;4994746;28;20739;-77
2020/12/23 00:54:36;;;;;;;2.87;2.40;;;10.40;99.90;;;;;;4993866;28;20212;-75
2020/12/23 00:57:03;;;;;;;3.17;2.47;;;10.20;99.90;;;;;;4995210;28;20205;-77
2020/12/23 00:59:30;;;;;;;2.50;1.90;;;10.30;99.90;;;;;;4994760;28;20251;-77
2020/12/23 01:01:57;;;;;;;2.70;2.50;;;10.30;99.90;;;;;;4994588;28;20201;-77
2020/12/23 01:04:24;;;;;;;3.77;3.17;;;10.30;99.90;;;;;;4994423;28;20278;-74
2020/12/23 01:06:50;;;;;;;4.63;3.13;;;10.30;99.90;;;;;;4994727;28;20251;-76
2020/12/23 01:09:17;;;;;;;3.60;2.80;;;10.30;99.90;;;;;;4994603;28;20200;-77
2020/12/23 01:11:43;;;;;;;3.93;3.37;;;10.30;99.90;;;;;;4994364;28;20759;-77
2020/12/23 01:14:10;;;;;;;4.00;3.63;;;10.30;99.90;;;;;;4994329;28;20209;-76
2020/12/23 01:16:37;;;;;;;4.47;3.57;;;10.20;99.90;;;;;;4994332;28;20223;-76
2020/12/23 01:19:04;;;;;;;3.97;3.63;;;10.20;99.90;;;;;;4994651;28;20205;-77
2020/12/23 01:21:30;;;;;;;4.43;3.63;;;10.20;99.90;;;;;;4994448;28;20236;-77
2020/12/23 01:23:56;;;;;;;5.70;4.60;;;10.20;99.90;;;;;;4993918;28;20220;-77
2020/12/23 01:26:23;;;;;;;6.70;4.87;;;10.20;99.90;;;;;;4994135;28;20208;-74
2020/12/23 01:28:49;;;;;;;6.20;5.50;;;10.20;99.90;;;;;;4994203;28;20205;-77
2020/12/23 01:31:16;;;;;;;7.80;4.47;;;10.20;99.90;;;;;;4993957;28;20200;-76
2020/12/23 01:33:43;;;;;;;5.20;4.10;;;10.20;99.90;;;;;;4993975;28;20204;-77
2020/12/23 01:36:10;;;;;;;6.03;4.37;;;10.20;99.90;;;;;;4994146;28;20286;-76
2020/12/23 01:38:36;;;;;;;6.20;4.93;;;10.30;99.90;;;;;;4993840;28;20240;-74
2020/12/23 01:41:05;;;;;;;7.37;5.80;;;10.20;99.90;;;;;;4994118;28;20232;-77
2020/12/23 01:43:32;;;;;;;5.37;4.83;;;10.30;99.90;;;;;;4994068;28;20209;-73
2020/12/23 01:45:59;;;;;;;6.40;4.57;;;10.30;99.90;;;;;;4993703;28;20220;-74
2020/12/23 01:48:29;;;;;;;7.10;5.07;;;10.30;99.90;;;;;;4993838;28;20201;-75
2020/12/23 01:50:58;;;;;;;5.50;4.90;;;10.30;99.90;;;;;;4993756;28;20209;-76
2020/12/23 01:53:25;;;;;;;6.83;4.77;;;10.30;99.90;;;;;;4993750;28;20219;-73
2020/12/23 01:55:52;;;;;;;7.93;4.70;;;10.30;99.90;;;;;;4993626;28;20208;-77
2020/12/23 01:58:19;;;;;;;6.40;5.70;;;10.20;99.90;;;;;;4993462;28;20672;-77
2020/12/23 02:00:45;;;;;;;14.93;4.93;;;10.30;99.90;;;;;;4993361;28;20239;-73
2020/12/23 02:03:13;;;;;;;6.40;5.40;;;10.30;99.90;;;;;;4993740;28;20205;-74
2020/12/23 02:05:40;;;;;;;6.67;6.00;;;10.30;99.90;;;;;;4992513;28;20248;-74
2020/12/23 02:08:09;;;;;;;7.50;5.60;;;10.30;99.90;;;;;;4993538;28;20700;-77
2020/12/23 02:10:36;;;;;;;6.67;6.00;;;10.30;99.90;;;;;;4993694;28;20204;-74
2020/12/23 02:13:03;;;;;;;9.57;7.57;;;10.40;99.90;;;;;;4993391;28;20283;-78
2020/12/23 02:15:30;;;;;;;9.93;7.60;;;10.40;99.90;;;;;;4993130;28;20676;-77
2020/12/23 02:17:56;;;;;;;10.23;7.80;;;10.40;99.90;;;;;;4993287;28;20205;-73
2020/12/23 02:20:22;;;;;;;11.67;7.03;;;10.40;99.90;;;;;;4992969;28;20228;-77
2020/12/23 02:22:51;;;;;;;9.87;7.43;;;10.40;99.90;;;;;;4993069;28;20688;-79
2020/12/23 02:25:17;;;;;;;8.17;7.13;;;10.40;99.90;;;;;;4993090;28;20204;-77
2020/12/23 02:27:44;;;;;;;8.63;7.57;;;10.40;99.90;;;;;;4993104;28;20209;-74
2020/12/23 02:30:12;;;;;;;9.10;7.77;;;10.50;99.90;;;;;;4993057;28;20205;-76
2020/12/23 02:32:38;;;;;;;10.97;9.60;;;10.50;99.90;;;;;;4993328;28;20208;-77
2020/12/23 02:35:07;;;;;;;10.70;8.00;;;10.50;99.90;;;;;;4993205;28;20208;-73
2020/12/23 02:37:33;;;;;;;10.00;7.50;;;10.50;99.90;;;;;;4992861;28;20209;-77
2020/12/23 02:40:01;;;;;;;11.07;8.87;;;10.50;99.90;;;;;;4992896;28;20240;-78
2020/12/23 02:42:27;;;;;;;11.57;8.37;;;10.50;99.90;;;;;;4992744;28;20660;-77
2020/12/23 02:44:56;;;;;;;9.13;7.43;;;10.50;99.90;;;;;;4992845;28;20235;-74
2020/12/23 02:47:22;;;;;;;10.03;7.83;;;10.50;99.90;;;;;;4992653;28;20263;-77
2020/12/23 02:49:49;;;;;;;11.60;8.27;;;10.50;99.90;;;;;;4992573;28;20332;-77
2020/12/23 02:52:15;;;;;;;9.33;8.07;;;10.50;99.90;;;;;;4992660;28;20204;-76
2020/12/23 02:54:42;;;;;;;9.47;7.63;;;10.50;99.90;;;;;;4992405;28;20702;-74
2020/12/23 02:57:09;;;;;;;11.30;9.27;;;10.40;99.90;;;;;;4993002;28;20262;-74
2020/12/23 02:59:36;;;;;;;10.53;8.13;;;10.40;99.90;;;;;;4992487;28;20209;-74
2020/12/23 03:02:03;;;;;;;8.90;8.00;;;10.40;99.90;;;;;;4992603;28;20208;-77
2020/12/23 03:04:29;;;;;;;11.47;8.10;;;10.40;99.90;;;;;;4992422;28;20205;-76
2020/12/23 03:06:55;;;;;;;9.63;8.70;;;10.40;99.90;;;;;;4992315;28;20209;-75
2020/12/23 03:09:22;;;;;;;10.93;8.07;;;10.20;99.90;;;;;;4992257;28;20681;-77
2020/12/23 03:11:48;;;;;;;14.13;8.53;;;10.10;99.90;;;;;;4992391;28;20220;-73
2020/12/23 03:14:16;;;;;;;12.57;8.10;;;10.20;99.90;;;;;;4992404;28;20259;-73
2020/12/23 03:16:42;;;;;;;11.10;8.37;;;10.30;99.90;;;;;;4992055;28;20205;-74
2020/12/23 03:19:09;;;;;;;10.17;8.80;;;10.30;99.90;;;;;;4992565;28;20584;-73
2020/12/23 03:21:35;;;;;;;11.30;8.73;;;10.20;99.90;;;;;;4992195;28;20613;-74
2020/12/23 03:24:02;;;;;;;14.47;8.93;;;10.10;99.90;;;;;;4991917;28;20680;-77
2020/12/23 03:26:28;;;;;;;8.90;8.03;;;10.20;99.90;;;;;;4992387;28;20247;-77
2020/12/23 03:28:55;;;;;;;13.43;8.53;;;10.10;99.90;;;;;;4992346;28;20216;-74
2020/12/23 03:31:22;;;;;;;10.13;8.67;;;10.10;99.90;;;;;;4992283;28;20217;-77
2020/12/23 03:33:49;;;;;;;12.23;8.67;;;10.10;99.90;;;;;;4992110;28;20205;-77
2020/12/23 03:36:15;;;;;;;10.53;8.70;;;10.10;99.90;;;;;;4992084;28;20232;-74
2020/12/23 03:38:42;;;;;;;12.47;8.73;;;10.10;99.90;;;;;;4992260;28;20572;-75
2020/12/23 03:41:08;;;;;;;10.13;8.23;;;10.00;99.90;;;;;;4992327;28;20277;-77
2020/12/23 03:43:35;;;;;;;11.80;8.67;;;10.10;99.90;;;;;;4992224;28;20211;-77
2020/12/23 03:46:01;;;;;;;9.83;8.60;;;10.20;99.90;;;;;;4992064;28;20201;-79
2020/12/23 03:48:28;;;;;;;10.67;8.77;;;10.10;99.90;;;;;;4991993;28;20255;-74
2020/12/23 03:50:55;;;;;;;10.20;9.07;;;10.20;99.90;;;;;;4991976;28;20211;-76
2020/12/23 03:53:22;;;;;;;10.93;8.77;;;10.20;99.90;;;;;;4992328;28;20205;-77
2020/12/23 03:55:49;;;;;;;10.47;8.47;;;10.20;99.90;;;;;;4992160;28;20208;-76
2020/12/23 03:58:16;;;;;;;11.53;9.03;;;10.40;99.90;;;;;;4991856;28;20259;-76
2020/12/23 04:00:42;;;;;;;10.80;9.43;;;10.20;99.90;;;;;;4992356;28;20232;-77
2020/12/23 04:03:09;;;;;;;11.43;9.77;;;10.20;99.90;;;;;;4991914;28;20228;-76
2020/12/23 04:05:36;;;;;;;12.27;9.63;;;10.10;99.90;;;;;;4991779;28;20738;-74
2020/12/23 04:08:03;;;;;;;9.87;7.73;;;10.10;99.90;;;;;;4991795;28;20212;-77
2020/12/23 04:10:30;;;;;;;11.80;9.93;;;10.20;99.90;;;;;;4991920;28;20212;-73
2020/12/23 04:12:56;;;;;;;12.40;8.07;;;10.20;99.90;;;;;;4991965;28;20208;-73
2020/12/23 04:15:23;;;;;;;10.50;8.47;;;10.20;99.90;;;;;;4992023;28;20252;-74
2020/12/23 04:17:51;;;;;;;11.60;10.23;;;10.20;99.90;;;;;;4991807;28;20212;-73
2020/12/23 04:20:17;;;;;;;11.60;9.80;;;10.20;99.90;;;;;;4991967;28;20244;-74
2020/12/23 04:22:45;;;;;;;9.27;8.17;;;10.20;99.90;;;;;;4992026;28;20221;-74
2020/12/23 04:25:11;;;;;;;11.37;9.40;;;10.40;99.90;;;;;;4991918;28;20241;-77
2020/12/23 04:27:37;;;;;;;10.63;9.53;;;10.30;99.90;;;;;;4991700;28;20201;-73
2020/12/23 04:30:05;;;;;;;10.70;9.30;;;10.40;99.90;;;;;;4994164;28;20239;-77
2020/12/23 04:32:31;;;;;;;11.33;10.07;;;10.40;99.90;;;;;;4994921;28;20236;-77
2020/12/23 04:35:01;;;;;;;15.40;9.70;;;10.30;99.90;;;;;;4995073;28;20205;-74
2020/12/23 04:37:28;;;;;;;11.40;8.43;;;10.40;99.90;;;;;;4995128;28;20570;-76
2020/12/23 04:39:56;;;;;;;14.20;11.13;;;10.50;99.90;;;;;;4995124;28;20245;-75
2020/12/23 04:42:22;;;;;;;10.43;9.40;;;10.40;99.90;;;;;;4995060;28;20205;-77
2020/12/23 04:44:49;;;;;;;11.73;9.97;;;10.40;99.90;;;;;;4994997;28;20200;-76
2020/12/23 04:47:22;;;;;;;12.40;10.57;;;10.50;99.90;;;;;;4995047;28;20201;-77
2020/12/23 04:49:53;;;;;;;13.80;9.23;;;10.50;99.90;;;;;;4994629;28;20208;-74
2020/12/23 04:52:22;;;;;;;13.30;9.97;;;10.60;99.90;;;;;;4994761;28;20209;-74
2020/12/23 04:54:49;;;;;;;13.70;10.17;;;10.50;99.90;;;;;;4994829;28;20201;-77
2020/12/23 04:57:18;;;;;;;9.77;8.13;;;10.50;99.90;;;;;;4995052;28;20244;-76
2020/12/23 04:59:45;;;;;;;13.90;9.63;;;10.60;99.90;;;;;;4994712;28;20592;-77
2020/12/23 05:02:11;;;;;;;13.03;9.23;;;10.60;99.90;;;;;;4994817;28;20215;-77
2020/12/23 05:04:38;;;;;;;14.33;10.27;;;10.50;99.90;;;;;;4994691;28;20257;-76
2020/12/23 05:07:06;;;;;;;14.17;10.50;;;10.60;99.90;;;;;;4994698;28;20216;-76
2020/12/23 05:09:33;;;;;;;11.00;9.80;;;10.50;99.90;;;;;;4994531;28;20201;-77
2020/12/23 05:12:00;;;;;;;13.80;10.93;;;10.50;99.90;;;;;;4994488;28;20564;-76
2020/12/23 05:14:28;;;;;;;10.73;9.33;;;10.60;99.90;;;;;;4994478;28;20236;-76
2020/12/23 05:16:55;;;;;;;10.63;8.57;;;10.80;99.90;;;;;;4994301;28;20216;-77
2020/12/23 05:19:23;;;;;;;13.50;9.63;;;10.70;99.90;;;;;;4994253;28;20594;-77
2020/12/23 05:21:49;;;;;;;18.13;10.87;;;10.60;99.90;;;;;;4994299;28;20233;-74
2020/12/23 05:24:16;;;;;;;13.00;9.97;;;10.50;99.90;;;;;;4994470;28;20213;-74
2020/12/23 05:26:44;;;;;;;11.83;10.60;;;10.50;99.90;;;;;;4994050;28;20208;-74
2020/12/23 05:29:13;;;;;;;12.40;10.10;;;10.60;99.90;;;;;;4994329;28;20228;-77
2020/12/23 05:31:41;;;;;;;15.27;10.00;;;10.60;99.90;;;;;;4994371;28;20209;-73
2020/12/23 05:34:08;;;;;;;13.33;10.33;;;10.70;99.90;;;;;;4994124;28;20664;-76
2020/12/23 05:36:37;;;;;;;12.57;9.67;;;10.60;99.90;;;;;;4994017;28;20562;-74
2020/12/23 05:39:05;;;;;;;15.67;11.23;;;10.60;99.90;;;;;;4993983;28;20205;-77
2020/12/23 05:41:32;;;;;;;13.80;11.77;;;10.60;99.90;;;;;;4993594;28;20247;-74
2020/12/23 05:44:00;;;;;;;11.83;10.50;;;10.70;99.90;;;;;;4994159;28;20200;-75
2020/12/23 05:46:26;;;;;;;12.57;10.17;;;10.60;99.90;;;;;;4993713;28;20664;-74
2020/12/23 05:48:53;;;;;;;13.60;10.23;;;10.60;99.90;;;;;;4993952;28;20251;-76
2020/12/23 05:51:20;;;;;;;14.30;11.43;;;10.50;99.90;;;;;;4994079;28;20201;-74
2020/12/23 05:53:47;;;;;;;12.43;11.23;;;10.50;99.90;;;;;;4993713;28;20633;-75
2020/12/23 05:56:14;;;;;;;13.80;10.53;;;10.60;99.90;;;;;;4993983;28;20208;-77
2020/12/23 05:58:40;;;;;;;16.13;10.00;;;10.60;99.90;;;;;;4993786;28;20592;-74
2020/12/23 06:01:08;;;;;;;12.27;10.03;;;10.70;99.90;;;;;;4993373;28;20712;-78
2020/12/23 06:03:58;;;;;;;15.53;11.73;;;10.70;99.90;;;;;;4993403;28;20232;-79
2020/12/23 06:06:26;;;;;;;14.97;11.07;;;10.60;99.90;;;;;;4993230;28;20235;-79
2020/12/23 06:08:54;;;;;;;18.60;11.80;;;10.60;99.90;;;;;;4993575;28;20204;-76
2020/12/23 06:11:37;;;;;;;14.93;11.87;;;10.60;99.90;;;;;;4993753;28;20562;-79
2020/12/23 06:14:20;;;;;;;15.87;11.57;;;10.60;99.90;;;;;;4993445;28;20212;-79
2020/12/23 06:16:49;;;;;;;15.83;11.67;;;10.70;99.90;;;;;;4993320;28;20205;-76
2020/12/23 06:19:26;;;;;;;15.10;11.70;;;10.60;99.90;;;;;;4993057;28;20205;-76
2020/12/23 06:21:54;;;;;;;15.07;10.67;;;10.60;99.90;;;;;;4993142;28;20271;-76
2020/12/23 06:24:21;;;;;;;18.60;12.70;;;10.70;99.90;;;;;;4993353;28;20216;-76
2020/12/23 06:26:49;;;;;;;19.57;13.17;;;10.50;99.90;;;;;;4993510;28;20240;-78
2020/12/23 06:29:17;;;;;;;14.60;11.10;;;10.60;99.90;;;;;;4992943;28;20224;-79
2020/12/23 06:31:47;;;;;;;15.73;13.03;;;10.60;99.90;;;;;;4993195;28;20240;-79
2020/12/23 06:34:16;;;;;;;23.07;12.37;;;10.50;99.90;;;;;;4993016;28;20578;-77
2020/12/23 06:36:44;;;;;;;18.87;13.10;;;10.50;99.90;;;;;;4992970;28;20259;-79
2020/12/23 06:39:25;;;;;;;18.03;12.97;;;10.50;99.90;;;;;;4992822;28;20204;-78
2020/12/23 06:41:52;;;;;;;15.67;13.07;;;10.60;99.90;;;;;;4993073;28;20237;-79
2020/12/23 06:44:19;;;;;;;20.03;13.60;;;10.50;99.90;;;;;;4993303;28;20201;-80
2020/12/23 06:47:07;;;;;;;17.10;14.03;;;10.60;99.90;;;;;;4992899;28;20204;-78
2020/12/23 06:49:35;;;;;;;17.30;12.87;;;10.60;99.90;;;;;;4992835;28;20206;-79
2020/12/23 06:52:23;;;;;;;18.90;12.00;;;10.60;99.90;;;;;;4992044;28;20540;-77
2020/12/23 06:54:50;;;;;;;20.03;14.30;;;10.70;99.90;;;;;;4992609;28;20634;-78
2020/12/23 06:57:49;;;;;;;16.80;13.80;;;10.60;99.90;;;;;;4992625;28;20669;-76
2020/12/23 07:00:37;;;;;;;19.77;13.40;;;10.70;99.90;;;;;;4992408;28;20240;-78
2020/12/23 07:03:05;;;;;;;16.00;13.30;;;10.60;99.90;;;;;;4989055;28;20544;-76
2020/12/23 07:05:35;;;;;;;24.13;13.23;;;10.70;99.90;;;;;;4992794;28;20205;-76
2020/12/23 07:08:04;;;;;;;20.33;14.60;;;10.80;99.90;;;;;;4992413;28;20559;-78
2020/12/23 07:10:32;;;;;;;17.40;13.27;;;10.80;99.90;;;;;;4992449;28;20205;-79
2020/12/23 07:13:00;;;;;;;19.07;14.07;;;10.80;99.90;;;;;;4992252;28;20209;-76
2020/12/23 07:15:27;;;;;;;16.97;13.17;;;10.90;99.90;;;;;;4992407;28;20216;-77
2020/12/23 07:17:56;;;;;;;17.17;13.90;;;10.90;99.90;;;;;;4992830;28;20212;-77
2020/12/23 07:20:24;;;;;;;16.20;12.67;;;10.90;99.90;;;;;;4992632;28;20231;-74
2020/12/23 07:22:52;;;;;;;16.80;14.90;;;10.90;99.90;;;;;;4992401;28;20259;-79
2020/12/23 07:25:22;;;;;;;18.93;14.17;;;10.80;99.90;;;;;;4992307;28;20212;-79
2020/12/23 07:27:55;;;;;;;17.70;12.70;;;10.80;99.90;;;;;;4992287;28;20232;-78
2020/12/23 07:30:22;;;;;;;20.13;14.50;;;10.80;99.90;;;;;;4992224;28;20223;-80
2020/12/23 07:32:59;;;;;;;18.57;13.20;;;10.90;99.90;;;;;;4992089;28;20621;-79
2020/12/23 07:35:26;;;;;;;20.77;13.60;;;10.80;99.90;;;;;;4992314;28;20211;-77
2020/12/23 07:37:57;;;;;;;21.77;13.63;;;10.90;99.90;;;;;;4992365;28;20205;-79
2020/12/23 07:40:25;;;;;;;19.90;13.63;;;11.00;99.90;;;;;;4992548;28;20228;-77
2020/12/23 07:42:52;;;;;;;21.13;14.77;;;11.10;99.90;;;;;;4992626;28;20201;-76
2020/12/23 07:45:20;;;;;;;20.40;13.27;;;11.00;99.90;;;;;;4992021;28;20728;-77
2020/12/23 07:47:54;;;;;;;16.23;11.80;;;11.20;99.90;;;;;;4992138;28;20251;-76
2020/12/23 07:50:21;;;;;;;14.73;10.67;;;11.30;99.90;;;;;;4992148;28;20216;-77
2020/12/23 07:52:47;;;;;;;13.80;11.67;;;11.30;99.90;;;;;;4992247;28;20208;-75
2020/12/23 07:55:15;;;;;;;15.03;13.00;;;11.30;99.90;;;;;;4992078;28;20201;-78
2020/12/23 07:57:42;;;;;;;25.03;12.13;;;11.30;99.90;;;;;;4991879;28;20599;-76
2020/12/23 08:00:10;;;;;;;16.27;11.53;;;11.40;99.90;;;;;;4991982;28;20205;-78
2020/12/23 08:02:37;;;;;;;19.60;12.63;;;11.40;99.90;;;;;;4992325;28;20201;-76
2020/12/23 08:05:04;;;;;;;17.40;11.40;;;11.30;99.90;;;;;;4995646;28;20252;-76
2020/12/23 08:07:31;;;;;;;16.77;11.70;;;11.30;99.90;;;;;;4995883;28;20205;-79
2020/12/23 08:10:06;;;;;;;15.90;11.07;;;11.40;99.90;;;;;;4996044;28;20232;-76
2020/12/23 08:12:33;;;;;;;16.03;10.90;;;11.40;99.90;;;;;;4995591;28;20204;-79
2020/12/23 08:15:00;;;;;;;17.50;11.63;;;11.40;99.90;;;;;;4995660;28;20212;-76
2020/12/23 08:17:27;;;;;;;14.17;10.47;;;11.50;99.90;;;;;;4996341;28;20204;-79
2020/12/23 08:20:05;;;;;;;13.83;11.20;;;11.50;99.90;;;;;;4995755;28;20204;-79
2020/12/23 08:22:33;;;;;;;13.13;11.70;;;11.80;99.90;;;;;;4995152;28;20213;-76
2020/12/23 08:25:04;;;;;;;12.43;10.13;;;11.90;99.90;;;;;;4995445;28;20212;-76
2020/12/23 08:27:31;;;;;;;11.17;9.97;;;12.10;99.90;;;;;;4995178;28;20200;-78
2020/12/23 08:29:58;;;;;;;14.17;9.90;;;12.20;99.90;;;;;;4995396;28;20205;-76
2020/12/23 08:32:31;;;;;;;12.83;10.73;;;12.20;99.90;;;;;;4995505;28;20205;-74
2020/12/23 08:35:01;;;;;;;12.90;10.93;;;12.10;99.90;;;;;;4995620;28;20209;-78
2020/12/23 08:37:28;;;;;;;12.43;9.77;;;12.10;99.90;;;;;;4995497;28;20216;-77
2020/12/23 08:39:56;;;;;;;13.87;8.90;;;12.00;99.90;;;;;;4995438;28;20205;-76
2020/12/23 08:42:23;;;;;;;15.13;10.30;;;12.00;99.90;;;;;;4994915;28;20279;-76
2020/12/23 08:44:52;;;;;;;11.03;9.10;;;12.10;99.90;;;;;;4994961;28;20201;-78
2020/12/23 08:47:22;;;;;;;13.27;7.93;;;12.20;99.90;;;;;;4995056;28;20205;-79
2020/12/23 08:49:51;;;;;;;11.63;8.77;;;12.30;99.90;;;;;;4994873;28;20212;-76
2020/12/23 08:52:18;;;;;;;9.50;7.30;;;12.20;99.90;;;;;;4994700;28;20227;-79
2020/12/23 08:54:45;;;;;;;9.40;8.27;;;12.30;99.90;;;;;;4994707;28;20275;-78
2020/12/23 08:57:14;;;;;;;10.40;7.53;;;12.40;99.90;;;;;;4994553;28;20212;-78
2020/12/23 08:59:41;;;;;;;10.07;7.93;;;12.50;99.90;;;;;;4994609;28;20731;-78
2020/12/23 09:02:12;;;;;;;11.57;8.30;;;13.00;99.90;;;;;;4994692;28;20240;-78
2020/12/23 09:04:38;;;;;;;10.75;7.57;;;13.80;99.90;;;;;;4994498;28;20259;-75
2020/12/23 09:07:06;;;;;;;10.18;7.93;;;14.10;99.90;;;;;;4994546;28;20267;-76
2020/12/23 09:09:33;;;;;;;9.95;7.25;;;14.40;99.90;;;;;;4994353;28;20673;-74
2020/12/23 09:12:01;;;;;;;12.18;7.13;;;14.60;99.90;;;;;;4994687;28;20688;-77
2020/12/23 09:14:29;;;;;;;12.05;7.43;;;15.40;99.90;;;;;;4994184;28;20209;-74
2020/12/23 09:16:57;;;;;;;10.48;7.25;;;15.00;99.90;;;;;;4994360;28;20209;-75
2020/12/23 09:19:48;;;;;;;8.95;7.03;;;15.00;99.90;;;;;;4994376;28;20568;-75
2020/12/23 09:22:26;;;;;;;8.20;6.72;;;14.80;99.90;;;;;;4994070;28;20236;-76
2020/12/23 09:24:52;;;;;;;10.15;7.20;;;15.00;99.90;;;;;;4994187;28;20235;-76
2020/12/23 09:27:24;;;;;;;10.00;7.90;;;14.60;99.90;;;;;;4994187;28;20205;-76
2020/12/23 09:29:51;;;;;;;8.60;7.20;;;13.90;99.90;;;;;;4994349;28;20236;-76
2020/12/23 09:32:18;;;;;;;9.13;7.15;;;14.00;99.90;;;;;;4994025;28;20578;-75
2020/12/23 09:34:44;;;;;;;8.25;6.13;;;14.10;99.90;;;;;;4993966;28;20204;-77
2020/12/23 09:37:11;;;;;;;12.90;7.95;;;14.00;99.90;;;;;;4994235;28;20205;-77
2020/12/23 09:39:39;;;;;;;11.35;6.70;;;14.30;99.90;;;;;;4994293;28;20213;-76
2020/12/23 09:42:07;;;;;;;8.00;7.05;;;15.00;99.90;;;;;;4994002;28;20315;-75
2020/12/23 09:44:34;;;;;;;8.93;7.13;;;14.10;99.90;;;;;;4994178;28;20208;-75
2020/12/23 09:47:01;;;;;;;8.23;6.65;;;14.10;99.90;;;;;;4994260;28;20209;-75
2020/12/23 09:49:27;;;;;;;9.38;7.35;;;14.00;99.90;;;;;;4993836;28;20255;-75
2020/12/23 09:51:54;;;;;;;10.95;8.40;;;13.80;99.90;;;;;;4993884;28;20265;-76
2020/12/23 09:54:21;;;;;;;8.50;7.20;;;13.90;99.90;;;;;;4993823;28;20727;-76
2020/12/23 09:56:51;;;;;;;11.73;7.68;;;13.80;99.90;;;;;;4993377;28;20743;-75
2020/12/23 09:59:18;;;;;;;11.32;7.30;;;13.70;99.90;;;;;;4993511;28;20209;-74
2020/12/23 10:01:44;;;;;;;11.77;8.43;;;13.60;99.90;;;;;;4993338;28;20232;-75
2020/12/23 10:04:11;;;;;;;9.68;7.38;;;13.70;99.90;;;;;;4993512;28;20204;-76
2020/12/23 10:06:37;;;;;;;12.20;8.00;;;13.60;99.90;;;;;;4993659;28;20243;-76
2020/12/23 10:09:05;;;;;;;8.75;7.32;;;13.70;99.90;;;;;;4993853;28;20236;-74
2020/12/23 10:11:32;;;;;;;12.70;8.20;;;13.70;99.90;;;;;;4993503;28;20677;-76
2020/12/23 10:14:01;;;;;;;11.27;7.97;;;13.60;99.90;;;;;;4993509;28;20205;-76
2020/12/23 10:16:31;;;;;;;9.25;7.47;;;13.50;99.90;;;;;;4993219;28;20205;-77
2020/12/23 10:18:59;;;;;;;10.05;7.63;;;13.60;99.90;;;;;;4993199;28;20673;-74
2020/12/23 10:21:26;;;;;;;10.43;8.00;;;13.60;99.90;;;;;;4993263;28;20674;-76
2020/12/23 10:23:52;;;;;;;10.82;8.32;;;13.80;99.90;;;;;;4993012;28;20209;-76
2020/12/23 10:26:18;;;;;;;9.52;7.32;;;14.20;99.90;;;;;;4992295;28;20209;-76
2020/12/23 10:28:45;;;;;;;11.10;7.57;;;14.30;99.90;;;;;;4993037;28;20628;-75
2020/12/23 10:31:13;;;;;;;8.77;6.68;;;15.20;99.90;;;;;;4993262;28;20205;-76
2020/12/23 10:33:40;;;;;;;8.77;6.97;;;16.50;99.90;;;;;;4993183;28;20208;-76
2020/12/23 10:36:09;;;;;;;8.30;6.78;;;16.40;99.90;;;;;;4992982;28;20201;-74
2020/12/23 10:38:35;;;;;;;9.40;6.68;;;15.50;99.90;;;;;;4993165;28;20746;-76
2020/12/23 10:41:02;;;;;;;7.75;7.00;;;15.30;99.90;;;;;;4993060;28;20236;-74
2020/12/23 10:43:28;;;;;;;7.97;6.07;;;15.10;99.90;;;;;;4992695;28;20255;-75
2020/12/23 10:45:55;;;;;;;9.40;7.68;;;15.10;99.90;;;;;;4992826;28;20205;-75
2020/12/23 10:48:22;;;;;;;7.43;6.75;;;14.90;99.90;;;;;;4992662;28;20209;-75
2020/12/23 10:50:48;;;;;;;10.35;6.20;;;14.60;99.90;;;;;;4992497;28;20212;-75
2020/12/23 10:53:15;;;;;;;10.40;6.55;;;14.50;99.90;;;;;;4992645;28;20209;-75
2020/12/23 10:55:41;;;;;;;7.43;6.35;;;14.40;99.90;;;;;;4992526;28;20669;-76
2020/12/23 10:58:08;;;;;;;7.60;6.47;;;14.80;99.90;;;;;;4992389;28;20201;-74
2020/12/23 11:00:35;;;;;;;9.40;6.78;;;14.90;99.90;;;;;;4992781;28;20591;-76
2020/12/23 11:03:01;;;;;;;8.00;5.88;;;15.10;99.90;;;;;;4992619;28;20205;-73
2020/12/23 11:05:29;;;;;;;8.48;6.78;;;15.10;99.90;;;;;;4992512;28;20585;-74
2020/12/23 11:07:56;;;;;;;8.38;6.70;;;15.10;99.90;;;;;;4992600;28;20209;-74
2020/12/23 11:10:22;;;;;;;8.20;6.90;;;15.20;99.90;;;;;;4992450;28;20209;-76
2020/12/23 11:12:49;;;;;;;7.55;5.93;;;15.40;99.90;;;;;;4992349;28;20622;-74
2020/12/23 11:15:16;;;;;;;9.25;6.65;;;15.30;99.90;;;;;;4992302;28;20256;-76
2020/12/23 11:17:44;;;;;;;8.52;6.47;;;15.30;99.90;;;;;;4992508;28;20655;-74
2020/12/23 11:20:11;;;;;;;10.77;6.75;;;15.20;99.90;;;;;;4992460;28;20359;-75
2020/12/23 11:22:38;;;;;;;6.82;6.07;;;15.20;99.90;;;;;;4992349;28;20619;-76
2020/12/23 11:25:05;;;;;;;8.32;7.15;;;14.70;99.90;;;;;;4992489;28;20264;-76
2020/12/23 11:27:32;;;;;;;9.57;7.43;;;14.90;99.90;;;;;;4992408;28;20204;-76
2020/12/23 11:29:58;;;;;;;10.45;7.25;;;15.10;99.90;;;;;;4992394;28;21180;-74
2020/12/23 11:32:25;;;;;;;8.20;7.22;;;14.90;99.90;;;;;;4992259;28;20208;-74
2020/12/23 11:34:51;;;;;;;9.65;7.10;;;15.20;99.90;;;;;;4992231;28;20201;-75
2020/12/23 11:37:18;;;;;;;12.95;6.30;;;14.80;99.90;;;;;;4992269;28;20204;-74
2020/12/23 11:39:45;;;;;;;8.25;6.68;;;14.60;99.90;;;;;;4995928;28;20204;-74
2020/12/23 11:42:11;;;;;;;11.48;7.57;;;14.80;99.90;;;;;;4996131;28;20291;-76
2020/12/23 11:44:38;;;;;;;16.27;6.65;;;14.80;99.90;;;;;;4996424;28;20210;-76
2020/12/23 11:47:05;;;;;;;9.93;6.82;;;14.80;99.90;;;;;;4996415;28;20209;-74
2020/12/23 11:49:31;;;;;;;6.88;6.18;;;14.80;99.90;;;;;;4996142;28;20201;-75
2020/12/23 11:51:58;;;;;;;9.63;7.57;;;15.00;99.90;;;;;;4995999;28;20204;-75
2020/12/23 11:54:25;;;;;;;9.82;7.82;;;15.30;99.90;;;;;;4995858;28;20695;-76
2020/12/23 11:56:52;;;;;;;11.50;7.03;;;15.00;99.90;;;;;;4996160;28;20217;-74
2020/12/23 11:59:18;;;;;;;11.98;8.00;;;14.90;99.90;;;;;;4995999;28;20211;-77
2020/12/23 12:01:45;;;;;;;14.57;8.32;;;15.00;99.90;;;;;;4995918;28;20240;-76
2020/12/23 12:04:11;;;;;;;8.77;7.15;;;15.20;99.90;;;;;;4995831;28;20201;-74
2020/12/23 12:06:38;;;;;;;9.75;7.32;;;15.20;99.90;;;;;;4995963;28;20209;-76
2020/12/23 12:09:05;;;;;;;9.05;7.63;;;15.10;99.90;;;;;;4995894;28;20259;-76
2020/12/23 12:11:31;;;;;;;11.05;7.32;;;14.90;99.90;;;;;;4995585;28;20684;-74
2020/12/23 12:13:59;;;;;;;7.35;6.22;;;14.80;99.90;;;;;;4995627;28;20689;-76
2020/12/23 12:16:25;;;;;;;7.20;6.38;;;14.90;99.90;;;;;;4995761;28;20209;-74
2020/12/23 12:18:52;;;;;;;9.88;6.35;;;14.70;99.90;;;;;;4995493;28;20608;-76
2020/12/23 12:21:18;;;;;;;10.75;7.50;;;14.50;99.90;;;;;;4995362;28;20256;-74
2020/12/23 12:23:44;;;;;;;11.55;8.32;;;14.50;99.90;;;;;;4995329;28;20271;-74
2020/12/23 12:26:11;;;;;;;8.68;6.68;;;14.50;99.90;;;;;;4995803;28;20232;-75
2020/12/23 12:28:37;;;;;;;9.75;6.85;;;14.40;99.90;;;;;;4995621;28;20209;-76
2020/12/23 12:31:05;;;;;;;8.25;7.22;;;14.50;99.90;;;;;;4995508;28;20204;-74
2020/12/23 12:33:31;;;;;;;8.43;7.38;;;14.50;99.90;;;;;;4995263;28;20209;-73
2020/12/23 12:35:58;;;;;;;12.70;8.90;;;14.50;99.90;;;;;;4995001;28;20255;-76
2020/12/23 12:38:25;;;;;;;12.35;6.63;;;14.60;99.90;;;;;;4995420;28;20271;-75
2020/12/23 12:40:51;;;;;;;8.65;5.93;;;14.50;99.90;;;;;;4995104;28;20705;-75